createdAt,value
2018-05-04T00:01:46.996Z,8.82
2018-05-04T00:04:20.591Z,8.73
2018-05-04T00:06:54.113Z,8.64
2018-05-04T00:09:27.644Z,8.59
2018-05-04T00:12:01.172Z,8.56
2018-05-04T00:14:34.690Z,8.52
2018-05-04T00:17:08.295Z,8.51
2018-05-04T00:19:42.008Z,8.47
2018-05-04T00:22:15.590Z,8.39
2018-05-04T00:24:49.268Z,8.35
2018-05-04T00:27:22.819Z,8.38
2018-05-04T00:29:56.448Z,8.40
2018-05-04T00:32:30.075Z,8.36
2018-05-04T00:35:03.746Z,8.31
2018-05-04T00:37:37.243Z,8.35
2018-05-04T00:40:10.800Z,8.38
2018-05-04T00:42:44.395Z,8.52
2018-05-04T00:45:18.088Z,8.63
2018-05-04T00:47:51.860Z,8.65
2018-05-04T00:50:25.503Z,8.57
2018-05-04T00:52:59.105Z,8.51
2018-05-04T00:55:32.988Z,8.55
2018-05-04T00:58:06.553Z,8.50
2018-05-04T01:00:40.250Z,8.43
2018-05-04T01:03:13.832Z,8.39
2018-05-04T01:05:47.388Z,8.32
2018-05-04T01:08:20.988Z,8.34
2018-05-04T01:10:54.608Z,8.40
2018-05-04T01:13:29.471Z,8.40
2018-05-04T01:16:03.144Z,8.47
2018-05-04T01:18:36.819Z,8.47
2018-05-04T01:21:10.380Z,8.45
2018-05-04T01:23:43.934Z,8.39
2018-05-04T01:26:17.615Z,8.40
2018-05-04T01:28:51.367Z,8.40
2018-05-04T01:31:24.999Z,8.40
2018-05-04T01:33:58.537Z,8.39
2018-05-04T01:36:32.328Z,8.32
2018-05-04T01:39:05.924Z,8.22
2018-05-04T01:41:39.528Z,8.17
2018-05-04T01:44:13.900Z,8.09
2018-05-04T01:46:47.490Z,8.05
2018-05-04T01:49:21.147Z,7.93
2018-05-04T01:51:54.703Z,7.90
2018-05-04T01:54:28.427Z,7.85
2018-05-04T01:57:03.111Z,7.91
2018-05-04T01:59:36.840Z,7.85
2018-05-04T02:02:10.494Z,7.76
2018-05-04T02:04:44.222Z,7.74
2018-05-04T02:07:18.833Z,7.86
2018-05-04T02:09:52.546Z,7.80
2018-05-04T02:12:26.056Z,7.79
2018-05-04T02:14:59.703Z,7.94
2018-05-04T02:17:33.326Z,7.89
2018-05-04T02:20:06.843Z,7.84
2018-05-04T02:22:40.497Z,7.80
2018-05-04T02:25:14.168Z,7.75
2018-05-04T02:27:47.816Z,7.78
2018-05-04T02:30:21.451Z,7.80
2018-05-04T02:32:55.105Z,7.67
2018-05-04T02:35:28.859Z,7.79
2018-05-04T02:38:02.417Z,7.76
2018-05-04T02:40:36.031Z,7.70
2018-05-04T02:43:09.553Z,7.76
2018-05-04T02:45:43.156Z,7.75
2018-05-04T02:48:16.691Z,7.67
2018-05-04T02:50:50.176Z,7.59
2018-05-04T02:53:23.781Z,7.50
2018-05-04T02:55:57.439Z,7.53
2018-05-04T02:58:31.189Z,7.59
2018-05-04T03:01:04.794Z,7.61
2018-05-04T03:03:38.721Z,7.74
2018-05-04T03:06:12.393Z,7.69
2018-05-04T03:08:46.022Z,7.57
2018-05-04T03:11:19.784Z,7.56
2018-05-04T03:13:53.343Z,7.56
2018-05-04T03:16:27.021Z,7.55
2018-05-04T03:19:00.713Z,7.64
2018-05-04T03:21:34.312Z,7.78
2018-05-04T03:24:08.083Z,7.87
2018-05-04T03:26:41.789Z,7.86
2018-05-04T03:29:15.567Z,8.01
2018-05-04T03:31:49.132Z,7.96
2018-05-04T03:34:22.794Z,8.02
2018-05-04T03:36:56.563Z,8.04
2018-05-04T03:39:30.214Z,8.21
2018-05-04T03:42:03.760Z,8.17
2018-05-04T03:44:37.492Z,8.25
2018-05-04T03:47:11.149Z,8.11
2018-05-04T03:49:44.785Z,8.05
2018-05-04T03:52:18.405Z,8.01
2018-05-04T03:54:52.035Z,8.01
2018-05-04T04:00:41.273Z,8.05
2018-05-04T04:03:26.868Z,8.12
2018-05-04T04:06:00.611Z,8.07
2018-05-04T04:08:34.244Z,8.17
2018-05-04T04:11:07.951Z,8.21
2018-05-04T04:13:41.576Z,8.14
2018-05-04T04:16:15.271Z,8.27
2018-05-04T04:18:48.892Z,8.25
2018-05-04T04:21:22.540Z,8.27
2018-05-04T04:23:56.123Z,8.29
2018-05-04T04:26:30.056Z,8.24
2018-05-04T04:29:03.728Z,8.32
2018-05-04T04:31:37.357Z,8.48
2018-05-04T04:34:11.111Z,8.57
2018-05-04T04:36:44.813Z,8.74
2018-05-04T04:39:18.432Z,9.03
2018-05-04T04:41:52.097Z,8.97
2018-05-04T04:44:25.918Z,9.04
2018-05-04T04:46:59.529Z,9.11
2018-05-04T04:49:33.065Z,9.09
2018-05-04T04:52:06.673Z,9.08
2018-05-04T04:54:40.481Z,9.13
2018-05-04T04:57:14.136Z,9.14
2018-05-04T04:59:47.840Z,9.19
2018-05-04T05:02:21.455Z,9.15
2018-05-04T05:04:55.320Z,9.17
2018-05-04T05:07:29.133Z,9.21
2018-05-04T05:10:02.738Z,9.30
2018-05-04T05:12:36.310Z,9.38
2018-05-04T05:15:09.858Z,9.49
2018-05-04T05:17:43.549Z,9.66
2018-05-04T05:20:17.389Z,9.84
2018-05-04T05:22:51.027Z,9.93
2018-05-04T05:25:24.619Z,10.03
2018-05-04T05:27:58.303Z,10.11
2018-05-04T05:30:32.045Z,10.28
2018-05-04T05:33:05.849Z,10.40
2018-05-04T05:35:39.714Z,10.52
2018-05-04T05:38:13.465Z,10.56
2018-05-04T05:40:47.338Z,10.69
2018-05-04T05:43:20.933Z,10.80
2018-05-04T05:45:54.516Z,10.91
2018-05-04T05:48:28.199Z,10.96
2018-05-04T05:51:02.010Z,11.17
2018-05-04T05:53:35.820Z,11.26
2018-05-04T05:56:09.571Z,11.40
2018-05-04T05:58:43.431Z,11.51
2018-05-04T06:01:16.991Z,11.66
2018-05-04T06:03:50.662Z,11.78
2018-05-04T06:06:24.319Z,12.39
2018-05-04T06:08:58.165Z,13.82
2018-05-04T06:11:32.005Z,14.99
2018-05-04T06:14:05.633Z,16.05
2018-05-04T06:16:39.327Z,16.71
2018-05-04T06:19:12.991Z,17.91
2018-05-04T06:21:46.680Z,17.52
2018-05-04T06:24:20.388Z,18.64
2018-05-04T06:26:54.065Z,18.52
2018-05-04T06:29:27.746Z,17.65
2018-05-04T06:32:01.360Z,17.87
2018-05-04T06:34:34.918Z,18.76
2018-05-04T06:37:08.572Z,20.36
2018-05-04T06:39:42.383Z,19.87
2018-05-04T06:42:15.957Z,19.18
2018-05-04T06:44:49.688Z,19.34
2018-05-04T06:47:23.302Z,19.79
2018-05-04T06:49:57.048Z,19.26
2018-05-04T06:52:30.747Z,20.45
2018-05-04T06:55:04.525Z,20.50
2018-05-04T06:57:38.272Z,20.73
2018-05-04T07:00:12.065Z,20.86
2018-05-04T07:02:45.859Z,22.51
2018-05-04T07:05:19.606Z,22.67
2018-05-04T07:07:53.288Z,23.28
2018-05-04T07:10:27.110Z,23.00
2018-05-04T07:13:00.702Z,22.57
2018-05-04T07:15:34.285Z,23.79
2018-05-04T07:18:07.788Z,23.21
2018-05-04T07:20:41.568Z,23.46
2018-05-04T07:23:15.200Z,24.67
2018-05-04T07:25:48.748Z,23.31
2018-05-04T07:28:22.248Z,23.43
2018-05-04T07:30:55.912Z,24.81
2018-05-04T07:33:29.462Z,23.73
2018-05-04T07:36:03.205Z,24.26
2018-05-04T07:38:36.760Z,23.35
2018-05-04T07:41:10.244Z,23.92
2018-05-04T07:43:43.925Z,24.20
2018-05-04T07:46:17.488Z,23.78
2018-05-04T07:48:51.320Z,24.18
2018-05-04T07:51:24.840Z,22.62
2018-05-04T07:53:58.516Z,23.39
2018-05-04T07:56:36.888Z,23.36
2018-05-04T07:59:10.584Z,22.32
2018-05-04T08:01:44.147Z,24.00
2018-05-04T08:04:17.807Z,23.48
2018-05-04T08:06:51.315Z,24.17
2018-05-04T08:09:24.819Z,23.41
2018-05-04T08:11:58.448Z,22.90
2018-05-04T08:14:32.199Z,23.30
2018-05-04T08:17:05.771Z,22.71
2018-05-04T08:19:39.537Z,22.91
2018-05-04T08:22:13.223Z,23.00
2018-05-04T08:24:46.808Z,22.54
2018-05-04T08:27:20.426Z,24.36
2018-05-04T08:29:53.899Z,25.38
2018-05-04T08:32:27.748Z,24.19
2018-05-04T08:35:01.546Z,23.04
2018-05-04T08:37:35.084Z,24.21
2018-05-04T08:40:08.845Z,23.54
2018-05-04T08:42:42.387Z,24.66
2018-05-04T08:45:16.172Z,25.39
2018-05-04T08:47:50.149Z,23.97
2018-05-04T08:50:23.932Z,22.70
2018-05-04T08:52:57.556Z,23.61
2018-05-04T08:55:31.873Z,24.46
2018-05-04T08:58:05.446Z,24.32
2018-05-04T09:00:39.101Z,25.65
2018-05-04T09:03:12.623Z,25.21
2018-05-04T09:05:46.445Z,24.13
2018-05-04T09:08:20.130Z,24.46
2018-05-04T09:10:53.720Z,26.15
2018-05-04T09:13:27.469Z,27.07
2018-05-04T09:16:01.269Z,25.80
2018-05-04T09:18:34.928Z,26.64
2018-05-04T09:21:08.763Z,26.93
2018-05-04T09:23:42.776Z,26.04
2018-05-04T09:26:16.444Z,26.02
2018-05-04T09:28:50.009Z,27.28
2018-05-04T09:31:23.688Z,26.66
2018-05-04T09:33:57.333Z,25.83
2018-05-04T09:36:30.907Z,25.62
2018-05-04T09:39:04.711Z,27.74
2018-05-04T09:41:38.349Z,29.16
2018-05-04T09:44:12.004Z,28.90
2018-05-04T09:46:45.901Z,24.79
2018-05-04T09:49:19.450Z,25.62
2018-05-04T09:51:53.234Z,27.19
2018-05-04T09:54:26.984Z,26.20
2018-05-04T09:57:00.725Z,25.66
2018-05-04T09:59:34.374Z,25.66
2018-05-04T10:02:08.034Z,28.18
2018-05-04T10:04:41.765Z,26.62
2018-05-04T10:07:15.433Z,28.31
2018-05-04T10:09:49.230Z,28.14
2018-05-04T10:12:22.985Z,27.85
2018-05-04T10:14:56.729Z,26.86
2018-05-04T10:17:30.458Z,27.96
2018-05-04T10:20:04.260Z,26.81
2018-05-04T10:22:38.052Z,27.06
2018-05-04T10:25:11.641Z,25.59
2018-05-04T10:27:45.398Z,26.17
2018-05-04T10:30:19.081Z,26.94
2018-05-04T10:32:52.750Z,27.80
2018-05-04T10:35:26.292Z,27.35
2018-05-04T10:37:59.965Z,28.12
2018-05-04T10:40:33.647Z,28.27
2018-05-04T10:43:07.512Z,26.75
2018-05-04T10:45:41.136Z,27.95
2018-05-04T10:48:14.848Z,29.60
2018-05-04T10:50:48.409Z,29.77
2018-05-04T10:53:22.010Z,27.48
2018-05-04T10:55:55.658Z,28.79
2018-05-04T10:58:29.357Z,27.75
2018-05-04T11:01:03.145Z,26.40
2018-05-04T11:03:36.764Z,26.79
2018-05-04T11:06:10.424Z,30.31
2018-05-04T11:08:44.161Z,30.16
2018-05-04T11:11:17.798Z,30.11
2018-05-04T11:13:51.378Z,28.63
2018-05-04T11:16:25.257Z,28.72
2018-05-04T11:18:58.868Z,26.77
2018-05-04T11:21:32.370Z,26.44
2018-05-04T11:24:06.189Z,28.74
2018-05-04T11:26:46.916Z,27.09
2018-05-04T11:29:20.451Z,27.13
2018-05-04T11:31:54.104Z,26.84
2018-05-04T11:34:27.786Z,25.01
2018-05-04T11:37:01.471Z,24.04
2018-05-04T11:39:35.174Z,25.00
2018-05-04T11:42:08.728Z,24.56
2018-05-04T11:44:42.432Z,25.08
2018-05-04T11:47:16.005Z,23.09
2018-05-04T11:49:49.582Z,23.11
2018-05-04T11:52:23.220Z,22.29
2018-05-04T11:54:56.813Z,22.61
2018-05-04T11:57:30.380Z,21.83
2018-05-04T12:00:04.050Z,21.31
2018-05-04T12:02:37.660Z,20.65
2018-05-04T12:05:11.269Z,20.91
2018-05-04T12:07:44.836Z,20.62
2018-05-04T12:10:18.384Z,20.60
2018-05-04T12:12:51.993Z,20.65
2018-05-04T12:15:25.665Z,20.17
2018-05-04T12:17:59.301Z,20.28
2018-05-04T12:20:32.937Z,19.88
2018-05-04T12:23:06.721Z,19.55
2018-05-04T12:25:40.505Z,19.66
2018-05-04T12:28:14.104Z,19.52
2018-05-04T12:30:47.756Z,19.63
2018-05-04T12:33:21.329Z,19.54
2018-05-04T12:35:54.858Z,19.63
2018-05-04T12:38:28.486Z,19.63
2018-05-04T12:41:02.102Z,19.71
2018-05-04T12:43:35.632Z,19.59
2018-05-04T12:46:09.328Z,19.67
2018-05-04T12:48:43.924Z,19.55
2018-05-04T12:51:17.669Z,19.59
2018-05-04T12:53:51.441Z,19.35
2018-05-04T12:56:24.861Z,19.40
2018-05-04T12:58:58.500Z,19.46
2018-05-04T13:01:32.048Z,19.47
2018-05-04T13:04:05.833Z,19.64
2018-05-04T13:06:39.385Z,19.88
2018-05-04T13:09:13.519Z,19.49
2018-05-04T13:11:47.263Z,19.66
2018-05-04T13:14:20.972Z,19.85
2018-05-04T13:16:54.704Z,19.81
2018-05-04T13:19:28.485Z,19.67
2018-05-04T13:22:02.167Z,19.56
2018-05-04T13:24:35.991Z,19.35
2018-05-04T13:27:09.645Z,19.45
2018-05-04T13:29:43.308Z,19.39
2018-05-04T13:32:17.085Z,19.71
2018-05-04T13:34:50.668Z,19.88
2018-05-04T13:37:24.357Z,20.06
2018-05-04T13:39:59.105Z,19.86
2018-05-04T13:42:32.740Z,19.76
2018-05-04T13:45:06.399Z,19.65
2018-05-04T13:47:40.161Z,19.73
2018-05-04T13:50:13.689Z,19.92
2018-05-04T13:52:47.338Z,19.81
2018-05-04T13:55:21.053Z,19.85
2018-05-04T13:57:54.625Z,19.94
2018-05-04T14:00:28.197Z,19.93
2018-05-04T14:03:01.987Z,19.98
2018-05-04T14:05:35.500Z,20.19
2018-05-04T14:08:08.996Z,20.18
2018-05-04T14:10:42.732Z,20.39
2018-05-04T14:13:16.389Z,20.89
2018-05-04T14:15:50.172Z,20.96
2018-05-04T14:18:24.019Z,21.72
2018-05-04T14:20:57.631Z,22.25
2018-05-04T14:23:31.216Z,23.00
2018-05-04T14:26:04.707Z,24.93
2018-05-04T14:28:38.376Z,25.04
2018-05-04T14:31:12.161Z,25.59
2018-05-04T14:33:45.698Z,25.40
2018-05-04T14:36:19.250Z,25.00
2018-05-04T14:38:52.839Z,24.72
2018-05-04T14:41:26.343Z,25.06
2018-05-04T14:44:00.047Z,25.44
2018-05-04T14:46:33.626Z,24.84
2018-05-04T14:49:07.176Z,26.16
2018-05-04T14:51:40.701Z,25.50
2018-05-04T14:54:14.324Z,24.44
2018-05-04T14:56:47.973Z,25.38
2018-05-04T14:59:21.831Z,25.67
2018-05-04T15:01:55.400Z,25.70
2018-05-04T15:04:29.158Z,25.34
2018-05-04T15:07:02.703Z,25.24
2018-05-04T15:09:36.266Z,24.18
2018-05-04T15:12:09.834Z,23.78
2018-05-04T15:14:43.421Z,23.71
2018-05-04T15:17:17.000Z,24.54
2018-05-04T15:19:50.590Z,24.16
2018-05-04T15:22:25.230Z,24.18
2018-05-04T15:24:59.111Z,23.67
2018-05-04T15:27:32.590Z,23.91
2018-05-04T15:30:06.163Z,22.99
2018-05-04T15:32:39.820Z,23.44
2018-05-04T15:35:13.525Z,23.37
2018-05-04T15:37:47.155Z,23.15
2018-05-04T15:40:20.960Z,22.09
2018-05-04T15:42:54.513Z,21.83
2018-05-04T15:45:28.181Z,21.22
2018-05-04T15:48:02.007Z,20.53
2018-05-04T15:50:41.502Z,19.94
2018-05-04T15:53:15.201Z,19.90
2018-05-04T15:55:48.794Z,19.84
2018-05-04T15:58:22.338Z,19.84
2018-05-04T16:00:55.883Z,19.84
2018-05-04T16:03:29.555Z,19.67
2018-05-04T16:06:03.299Z,19.67
2018-05-04T16:08:37.093Z,19.53
2018-05-04T16:11:10.742Z,19.38
2018-05-04T16:13:44.511Z,19.14
2018-05-04T16:16:18.039Z,19.15
2018-05-04T16:18:51.663Z,19.25
2018-05-04T16:21:25.344Z,19.12
2018-05-04T16:23:58.942Z,18.98
2018-05-04T16:26:32.534Z,18.99
2018-05-04T16:29:06.311Z,18.80
2018-05-04T16:31:40.209Z,18.80
2018-05-04T16:34:13.808Z,18.71
2018-05-04T16:36:47.618Z,18.78
2018-05-04T16:39:21.224Z,18.67
2018-05-04T16:41:54.843Z,18.61
2018-05-04T16:44:28.613Z,18.68
2018-05-04T16:47:08.081Z,18.64
2018-05-04T16:49:41.767Z,18.52
2018-05-04T16:52:15.308Z,18.60
2018-05-04T16:54:48.935Z,18.54
2018-05-04T16:57:22.660Z,18.46
2018-05-04T16:59:56.305Z,18.34
2018-05-04T17:02:30.116Z,18.40
2018-05-04T17:05:03.810Z,18.39
2018-05-04T17:07:37.708Z,18.40
2018-05-04T17:10:11.343Z,18.37
2018-05-04T17:12:44.892Z,18.27
2018-05-04T17:15:18.471Z,18.26
2018-05-04T17:17:52.247Z,18.25
2018-05-04T17:20:25.865Z,18.17
2018-05-04T17:22:59.456Z,18.08
2018-05-04T17:25:33.099Z,17.96
2018-05-04T17:28:06.824Z,17.94
2018-05-04T17:30:40.364Z,17.86
2018-05-04T17:33:13.984Z,17.84
2018-05-04T17:35:47.536Z,17.77
2018-05-04T17:38:21.109Z,17.55
2018-05-04T17:40:54.831Z,17.59
2018-05-04T17:43:28.531Z,17.54
2018-05-04T17:46:02.386Z,17.48
2018-05-04T17:48:36.020Z,17.46
2018-05-04T17:51:09.883Z,17.38
2018-05-04T17:53:43.494Z,17.34
2018-05-04T17:56:17.180Z,17.21
2018-05-04T17:58:50.998Z,17.16
2018-05-04T18:01:24.763Z,17.17
2018-05-04T18:03:58.562Z,17.17
2018-05-04T18:06:32.095Z,17.02
2018-05-04T18:09:05.637Z,17.00
2018-05-04T18:11:39.317Z,17.00
2018-05-04T18:14:12.968Z,16.95
2018-05-04T18:16:46.636Z,16.86
2018-05-04T18:19:20.145Z,16.81
2018-05-04T18:21:53.924Z,16.77
2018-05-04T18:24:27.720Z,16.75
2018-05-04T18:27:01.296Z,16.72
2018-05-04T18:29:34.991Z,16.71
2018-05-04T18:32:08.496Z,16.59
2018-05-04T18:34:42.080Z,16.52
2018-05-04T18:37:15.727Z,16.49
2018-05-04T18:39:49.423Z,16.33
2018-05-04T18:42:22.999Z,16.32
2018-05-04T18:44:56.646Z,16.30
2018-05-04T18:47:30.392Z,16.14
2018-05-04T18:50:04.162Z,16.09
2018-05-04T18:52:37.907Z,16.03
2018-05-04T18:55:11.499Z,16.04
2018-05-04T18:57:45.239Z,16.00
2018-05-04T19:00:18.782Z,15.89
2018-05-04T19:02:57.966Z,15.81
2018-05-04T19:05:31.618Z,15.68
2018-05-04T19:08:05.287Z,15.68
2018-05-04T19:10:38.850Z,15.58
2018-05-04T19:13:12.358Z,15.49
2018-05-04T19:15:46.028Z,15.41
2018-05-04T19:18:19.589Z,15.39
2018-05-04T19:20:53.171Z,15.41
2018-05-04T19:23:26.961Z,15.36
2018-05-04T19:26:00.729Z,15.26
2018-05-04T19:28:34.463Z,15.21
2018-05-04T19:31:07.997Z,15.12
2018-05-04T19:33:41.580Z,15.07
2018-05-04T19:36:15.156Z,15.09
2018-05-04T19:38:48.831Z,15.10
2018-05-04T19:41:22.376Z,15.10
2018-05-04T19:43:56.102Z,15.03
2018-05-04T19:46:29.672Z,14.89
2018-05-04T19:49:03.636Z,14.86
2018-05-04T19:51:37.165Z,14.84
2018-05-04T19:54:10.941Z,14.84
2018-05-04T19:56:44.511Z,14.79
2018-05-04T19:59:18.252Z,14.77
2018-05-04T20:01:51.888Z,14.73
2018-05-04T20:04:25.431Z,14.60
2018-05-04T20:06:58.986Z,14.61
2018-05-04T20:09:33.068Z,14.60
2018-05-04T20:12:06.604Z,14.53
2018-05-04T20:14:40.400Z,14.48
2018-05-04T20:17:14.043Z,14.41
2018-05-04T20:19:47.992Z,14.38
2018-05-04T20:22:21.683Z,14.42
2018-05-04T20:24:55.706Z,14.36
2018-05-04T20:27:29.415Z,14.27
2018-05-04T20:30:03.233Z,14.24
2018-05-04T20:32:36.992Z,14.36
2018-05-04T20:35:10.711Z,14.26
2018-05-04T20:37:44.394Z,14.23
2018-05-04T20:40:18.151Z,14.25
2018-05-04T20:42:51.685Z,14.21
2018-05-04T20:45:25.246Z,14.14
2018-05-04T20:47:58.928Z,14.06
2018-05-04T20:50:32.483Z,14.06
2018-05-04T20:53:06.283Z,14.06
2018-05-04T20:55:39.995Z,14.04
2018-05-04T20:58:13.639Z,13.96
2018-05-04T21:00:47.293Z,13.97
2018-05-04T21:03:20.907Z,13.92
2018-05-04T21:05:54.728Z,13.86
2018-05-04T21:08:28.456Z,13.82
2018-05-04T21:11:02.014Z,13.79
2018-05-04T21:13:35.835Z,13.79
2018-05-04T21:16:09.561Z,13.72
2018-05-04T21:18:43.112Z,13.64
2018-05-04T21:21:16.668Z,13.66
2018-05-04T21:23:50.263Z,13.67
2018-05-04T21:26:23.779Z,13.61
2018-05-04T21:28:57.430Z,13.63
2018-05-04T21:31:30.978Z,13.59
2018-05-04T21:34:04.539Z,13.68
2018-05-04T21:36:38.232Z,13.60
2018-05-04T21:39:11.898Z,13.51
2018-05-04T21:41:45.639Z,13.38
2018-05-04T21:44:19.318Z,13.38
2018-05-04T21:46:52.978Z,13.42
2018-05-04T21:49:26.736Z,13.30
2018-05-04T21:52:00.452Z,13.22
2018-05-04T21:54:33.964Z,13.10
2018-05-04T21:57:07.532Z,13.12
2018-05-04T21:59:41.140Z,13.13
2018-05-04T22:02:14.818Z,13.32
2018-05-04T22:04:48.749Z,13.30
2018-05-04T22:07:22.450Z,13.07
2018-05-04T22:09:56.087Z,13.09
2018-05-04T22:12:29.704Z,13.00
2018-05-04T22:15:03.288Z,13.04
2018-05-04T22:17:36.972Z,12.91
2018-05-04T22:20:10.641Z,12.92
2018-05-04T22:22:44.327Z,12.87
2018-05-04T22:25:17.952Z,12.81
2018-05-04T22:27:51.892Z,12.96
2018-05-04T22:30:25.585Z,12.99
2018-05-04T22:32:59.395Z,12.92
2018-05-04T22:35:33.052Z,12.89
2018-05-04T22:38:06.802Z,12.85
2018-05-04T22:40:40.428Z,12.89
2018-05-04T22:43:14.303Z,12.92
2018-05-04T22:45:48.152Z,12.91
2018-05-04T22:48:21.816Z,12.95
2018-05-04T22:50:55.656Z,13.02
2018-05-04T22:53:29.305Z,13.04
2018-05-04T22:56:03.065Z,13.08
2018-05-04T22:58:36.700Z,13.00
2018-05-04T23:01:10.398Z,12.89
2018-05-04T23:03:44.027Z,12.81
2018-05-04T23:06:17.808Z,12.69
2018-05-04T23:08:51.403Z,12.68
2018-05-04T23:11:25.192Z,12.67
2018-05-04T23:13:58.801Z,12.61
2018-05-04T23:16:32.428Z,12.58
2018-05-04T23:19:06.139Z,12.63
2018-05-04T23:21:39.904Z,12.53
2018-05-04T23:24:13.635Z,12.54
2018-05-04T23:26:47.370Z,12.57
2018-05-04T23:29:20.900Z,12.50
2018-05-04T23:31:54.456Z,12.59
2018-05-04T23:34:27.972Z,12.60
2018-05-04T23:37:01.736Z,12.52
2018-05-04T23:39:35.319Z,12.38
2018-05-04T23:42:09.013Z,12.30
2018-05-04T23:44:42.716Z,12.30
2018-05-04T23:47:16.387Z,12.27
2018-05-04T23:49:49.924Z,12.23
2018-05-04T23:52:23.524Z,12.10
2018-05-04T23:54:58.822Z,12.02
2018-05-04T23:57:32.524Z,12.07
